sensor_id;sensor_type;location;lat;lon;timestamp;P1;durP1;ratioP1;P2;durP2;ratioP2
14754;SDS011;7469;50.906;6.952;2022-11-15T00:01:11;10.03;;;5.67;;
14754;SDS011;7469;50.906;6.952;2022-11-15T00:03:44;6.80;;;5.20;;
14754;SDS011;7469;50.906;6.952;2022-11-15T00:06:12;7.40;;;5.07;;
14754;SDS011;7469;50.906;6.952;2022-11-15T00:08:40;8.03;;;5.20;;
14754;SDS011;7469;50.906;6.952;2022-11-15T00:11:09;9.83;;;5.63;;
14754;SDS011;7469;50.906;6.952;2022-11-15T00:13:39;7.80;;;5.33;;
14754;SDS011;7469;50.906;6.952;2022-11-15T00:16:08;9.70;;;5.40;;
14754;SDS011;7469;50.906;6.952;2022-11-15T00:18:38;9.10;;;5.43;;
14754;SDS011;7469;50.906;6.952;2022-11-15T00:21:10;10.87;;;5.30;;
14754;SDS011;7469;50.906;6.952;2022-11-15T00:23:38;7.00;;;5.40;;
14754;SDS011;7469;50.906;6.952;2022-11-15T00:26:07;10.80;;;4.90;;
14754;SDS011;7469;50.906;6.952;2022-11-15T00:28:39;7.37;;;5.20;;
14754;SDS011;7469;50.906;6.952;2022-11-15T00:31:09;8.70;;;4.90;;
14754;SDS011;7469;50.906;6.952;2022-11-15T00:33:42;8.90;;;5.40;;
14754;SDS011;7469;50.906;6.952;2022-11-15T00:36:11;6.57;;;5.00;;
14754;SDS011;7469;50.906;6.952;2022-11-15T00:38:39;10.13;;;5.60;;
14754;SDS011;7469;50.906;6.952;2022-11-15T00:41:07;8.33;;;5.33;;
14754;SDS011;7469;50.906;6.952;2022-11-15T00:43:36;5.17;;;4.67;;
14754;SDS011;7469;50.906;6.952;2022-11-15T00:46:06;9.03;;;5.53;;
14754;SDS011;7469;50.906;6.952;2022-11-15T00:48:37;6.60;;;5.40;;
14754;SDS011;7469;50.906;6.952;2022-11-15T00:51:04;8.83;;;4.93;;
14754;SDS011;7469;50.906;6.952;2022-11-15T00:53:32;12.57;;;5.13;;
14754;SDS011;7469;50.906;6.952;2022-11-15T00:56:00;7.10;;;5.00;;
14754;SDS011;7469;50.906;6.952;2022-11-15T00:58:29;7.73;;;4.97;;
14754;SDS011;7469;50.906;6.952;2022-11-15T01:00:56;7.47;;;5.47;;
14754;SDS011;7469;50.906;6.952;2022-11-15T01:03:33;6.70;;;5.03;;
14754;SDS011;7469;50.906;6.952;2022-11-15T01:06:03;8.67;;;5.60;;
14754;SDS011;7469;50.906;6.952;2022-11-15T01:08:31;8.53;;;6.00;;
14754;SDS011;7469;50.906;6.952;2022-11-15T01:11:02;6.43;;;5.10;;
14754;SDS011;7469;50.906;6.952;2022-11-15T01:13:32;6.57;;;5.30;;
14754;SDS011;7469;50.906;6.952;2022-11-15T01:16:05;8.50;;;5.23;;
14754;SDS011;7469;50.906;6.952;2022-11-15T01:18:34;6.63;;;5.13;;
14754;SDS011;7469;50.906;6.952;2022-11-15T01:21:07;6.87;;;5.33;;
14754;SDS011;7469;50.906;6.952;2022-11-15T01:23:36;7.97;;;5.10;;
14754;SDS011;7469;50.906;6.952;2022-11-15T01:26:06;12.73;;;5.40;;
14754;SDS011;7469;50.906;6.952;2022-11-15T01:28:37;8.20;;;6.03;;
14754;SDS011;7469;50.906;6.952;2022-11-15T01:31:06;10.63;;;5.33;;
14754;SDS011;7469;50.906;6.952;2022-11-15T01:33:38;10.63;;;5.50;;
14754;SDS011;7469;50.906;6.952;2022-11-15T01:36:09;6.53;;;5.10;;
14754;SDS011;7469;50.906;6.952;2022-11-15T01:38:39;8.93;;;5.57;;
14754;SDS011;7469;50.906;6.952;2022-11-15T01:41:11;9.23;;;5.80;;
14754;SDS011;7469;50.906;6.952;2022-11-15T01:43:42;7.17;;;5.00;;
14754;SDS011;7469;50.906;6.952;2022-11-15T01:46:15;6.90;;;4.97;;
14754;SDS011;7469;50.906;6.952;2022-11-15T01:48:51;7.37;;;5.70;;
14754;SDS011;7469;50.906;6.952;2022-11-15T01:51:21;10.90;;;5.70;;
14754;SDS011;7469;50.906;6.952;2022-11-15T01:53:54;7.83;;;5.00;;
14754;SDS011;7469;50.906;6.952;2022-11-15T01:56:27;6.00;;;5.40;;
14754;SDS011;7469;50.906;6.952;2022-11-15T01:58:58;7.03;;;5.27;;
14754;SDS011;7469;50.906;6.952;2022-11-15T02:01:30;10.70;;;6.17;;
14754;SDS011;7469;50.906;6.952;2022-11-15T02:04:01;7.40;;;5.43;;
14754;SDS011;7469;50.906;6.952;2022-11-15T02:06:36;9.60;;;5.60;;
14754;SDS011;7469;50.906;6.952;2022-11-15T02:09:05;8.47;;;5.20;;
14754;SDS011;7469;50.906;6.952;2022-11-15T02:11:33;5.80;;;4.90;;
14754;SDS011;7469;50.906;6.952;2022-11-15T02:14:01;8.53;;;5.20;;
14754;SDS011;7469;50.906;6.952;2022-11-15T02:16:32;7.97;;;5.00;;
14754;SDS011;7469;50.906;6.952;2022-11-15T02:19:10;8.13;;;5.40;;
14754;SDS011;7469;50.906;6.952;2022-11-15T02:21:52;8.97;;;5.30;;
14754;SDS011;7469;50.906;6.952;2022-11-15T02:27:39;7.50;;;5.30;;
14754;SDS011;7469;50.906;6.952;2022-11-15T02:30:23;7.93;;;4.93;;
14754;SDS011;7469;50.906;6.952;2022-11-15T02:32:57;9.50;;;5.00;;
14754;SDS011;7469;50.906;6.952;2022-11-15T02:35:29;7.93;;;5.30;;
14754;SDS011;7469;50.906;6.952;2022-11-15T02:38:06;6.73;;;4.73;;
14754;SDS011;7469;50.906;6.952;2022-11-15T02:40:41;9.03;;;4.90;;
14754;SDS011;7469;50.906;6.952;2022-11-15T02:43:18;7.67;;;4.90;;
14754;SDS011;7469;50.906;6.952;2022-11-15T02:46:12;7.33;;;4.87;;
14754;SDS011;7469;50.906;6.952;2022-11-15T02:48:46;5.70;;;4.63;;
14754;SDS011;7469;50.906;6.952;2022-11-15T02:51:15;5.87;;;4.40;;
14754;SDS011;7469;50.906;6.952;2022-11-15T02:53:44;5.90;;;4.60;;
14754;SDS011;7469;50.906;6.952;2022-11-15T02:56:12;6.03;;;4.60;;
14754;SDS011;7469;50.906;6.952;2022-11-15T03:01:36;5.33;;;4.20;;
14754;SDS011;7469;50.906;6.952;2022-11-15T03:04:16;6.83;;;4.37;;
14754;SDS011;7469;50.906;6.952;2022-11-15T03:06:52;6.97;;;4.70;;
14754;SDS011;7469;50.906;6.952;2022-11-15T03:09:28;4.70;;;4.10;;
14754;SDS011;7469;50.906;6.952;2022-11-15T03:12:02;5.37;;;4.17;;
14754;SDS011;7469;50.906;6.952;2022-11-15T03:14:34;7.13;;;4.27;;
14754;SDS011;7469;50.906;6.952;2022-11-15T03:17:09;5.87;;;4.40;;
14754;SDS011;7469;50.906;6.952;2022-11-15T03:19:44;4.40;;;4.00;;
14754;SDS011;7469;50.906;6.952;2022-11-15T03:22:14;4.57;;;4.00;;
14754;SDS011;7469;50.906;6.952;2022-11-15T03:24:45;4.83;;;4.10;;
14754;SDS011;7469;50.906;6.952;2022-11-15T03:27:17;5.83;;;4.13;;
14754;SDS011;7469;50.906;6.952;2022-11-15T03:29:50;5.70;;;4.80;;
14754;SDS011;7469;50.906;6.952;2022-11-15T03:32:24;5.73;;;4.57;;
14754;SDS011;7469;50.906;6.952;2022-11-15T03:34:56;5.73;;;3.93;;
14754;SDS011;7469;50.906;6.952;2022-11-15T03:37:27;6.73;;;4.53;;
14754;SDS011;7469;50.906;6.952;2022-11-15T03:39:59;5.87;;;4.50;;
14754;SDS011;7469;50.906;6.952;2022-11-15T03:42:29;6.83;;;4.70;;
14754;SDS011;7469;50.906;6.952;2022-11-15T03:45:03;6.57;;;3.87;;
14754;SDS011;7469;50.906;6.952;2022-11-15T03:47:40;5.23;;;4.60;;
14754;SDS011;7469;50.906;6.952;2022-11-15T03:50:13;7.47;;;4.37;;
14754;SDS011;7469;50.906;6.952;2022-11-15T03:52:45;5.73;;;4.10;;
14754;SDS011;7469;50.906;6.952;2022-11-15T03:55:15;7.03;;;4.33;;
14754;SDS011;7469;50.906;6.952;2022-11-15T03:57:45;4.17;;;3.77;;
14754;SDS011;7469;50.906;6.952;2022-11-15T04:00:15;8.40;;;4.30;;
14754;SDS011;7469;50.906;6.952;2022-11-15T04:02:44;5.47;;;4.67;;
14754;SDS011;7469;50.906;6.952;2022-11-15T04:05:12;5.53;;;4.13;;
14754;SDS011;7469;50.906;6.952;2022-11-15T04:07:40;5.50;;;4.67;;
14754;SDS011;7469;50.906;6.952;2022-11-15T04:10:09;6.50;;;4.80;;
14754;SDS011;7469;50.906;6.952;2022-11-15T04:12:38;5.53;;;4.73;;
14754;SDS011;7469;50.906;6.952;2022-11-15T04:15:09;6.13;;;4.37;;
14754;SDS011;7469;50.906;6.952;2022-11-15T04:17:39;5.23;;;4.20;;
14754;SDS011;7469;50.906;6.952;2022-11-15T04:20:11;5.23;;;3.97;;
14754;SDS011;7469;50.906;6.952;2022-11-15T04:22:59;4.67;;;3.87;;
14754;SDS011;7469;50.906;6.952;2022-11-15T04:25:46;5.63;;;4.73;;
14754;SDS011;7469;50.906;6.952;2022-11-15T04:28:18;6.17;;;4.30;;
14754;SDS011;7469;50.906;6.952;2022-11-15T04:30:46;5.13;;;4.40;;
14754;SDS011;7469;50.906;6.952;2022-11-15T04:33:14;4.77;;;4.27;;
14754;SDS011;7469;50.906;6.952;2022-11-15T04:35:43;6.20;;;4.20;;
14754;SDS011;7469;50.906;6.952;2022-11-15T04:38:32;5.90;;;4.30;;
14754;SDS011;7469;50.906;6.952;2022-11-15T04:40:59;6.73;;;4.30;;
14754;SDS011;7469;50.906;6.952;2022-11-15T04:43:27;5.80;;;4.57;;
14754;SDS011;7469;50.906;6.952;2022-11-15T04:45:56;4.63;;;4.00;;
14754;SDS011;7469;50.906;6.952;2022-11-15T04:48:23;5.27;;;4.00;;
14754;SDS011;7469;50.906;6.952;2022-11-15T04:50:53;4.53;;;4.13;;
14754;SDS011;7469;50.906;6.952;2022-11-15T04:53:21;4.33;;;3.73;;
14754;SDS011;7469;50.906;6.952;2022-11-15T04:55:48;4.30;;;3.90;;
14754;SDS011;7469;50.906;6.952;2022-11-15T04:58:16;4.50;;;4.10;;
14754;SDS011;7469;50.906;6.952;2022-11-15T05:00:44;5.63;;;4.00;;
14754;SDS011;7469;50.906;6.952;2022-11-15T05:03:12;4.33;;;3.93;;
14754;SDS011;7469;50.906;6.952;2022-11-15T05:06:00;7.80;;;4.23;;
14754;SDS011;7469;50.906;6.952;2022-11-15T05:08:28;4.73;;;4.03;;
14754;SDS011;7469;50.906;6.952;2022-11-15T05:10:56;4.33;;;3.93;;
14754;SDS011;7469;50.906;6.952;2022-11-15T05:13:24;6.43;;;4.23;;
14754;SDS011;7469;50.906;6.952;2022-11-15T05:15:52;4.93;;;4.00;;
14754;SDS011;7469;50.906;6.952;2022-11-15T05:18:20;8.00;;;4.20;;
14754;SDS011;7469;50.906;6.952;2022-11-15T05:20:49;6.17;;;3.73;;
14754;SDS011;7469;50.906;6.952;2022-11-15T05:23:18;5.60;;;4.30;;
14754;SDS011;7469;50.906;6.952;2022-11-15T05:25:46;4.97;;;3.90;;
14754;SDS011;7469;50.906;6.952;2022-11-15T05:28:14;4.13;;;3.60;;
14754;SDS011;7469;50.906;6.952;2022-11-15T05:30:42;4.53;;;3.97;;
14754;SDS011;7469;50.906;6.952;2022-11-15T05:33:10;4.13;;;3.67;;
14754;SDS011;7469;50.906;6.952;2022-11-15T05:35:38;5.27;;;3.93;;
14754;SDS011;7469;50.906;6.952;2022-11-15T05:38:10;4.57;;;3.67;;
14754;SDS011;7469;50.906;6.952;2022-11-15T05:40:40;4.17;;;3.60;;
14754;SDS011;7469;50.906;6.952;2022-11-15T05:43:08;6.13;;;3.73;;
14754;SDS011;7469;50.906;6.952;2022-11-15T05:45:37;4.53;;;3.90;;
14754;SDS011;7469;50.906;6.952;2022-11-15T05:48:06;5.67;;;4.03;;
14754;SDS011;7469;50.906;6.952;2022-11-15T05:50:36;5.90;;;4.10;;
14754;SDS011;7469;50.906;6.952;2022-11-15T05:53:05;4.00;;;3.50;;
14754;SDS011;7469;50.906;6.952;2022-11-15T05:55:34;4.97;;;3.53;;
14754;SDS011;7469;50.906;6.952;2022-11-15T05:58:03;4.10;;;3.70;;
14754;SDS011;7469;50.906;6.952;2022-11-15T06:00:31;5.83;;;3.60;;
14754;SDS011;7469;50.906;6.952;2022-11-15T06:02:59;4.63;;;3.67;;
14754;SDS011;7469;50.906;6.952;2022-11-15T06:05:27;5.57;;;3.70;;
14754;SDS011;7469;50.906;6.952;2022-11-15T06:07:56;4.13;;;3.30;;
14754;SDS011;7469;50.906;6.952;2022-11-15T06:10:24;4.00;;;3.20;;
14754;SDS011;7469;50.906;6.952;2022-11-15T06:12:56;3.37;;;3.07;;
14754;SDS011;7469;50.906;6.952;2022-11-15T06:15:26;3.70;;;3.40;;
14754;SDS011;7469;50.906;6.952;2022-11-15T06:17:55;4.23;;;3.23;;
14754;SDS011;7469;50.906;6.952;2022-11-15T06:20:24;4.07;;;3.53;;
14754;SDS011;7469;50.906;6.952;2022-11-15T06:22:55;4.50;;;3.37;;
14754;SDS011;7469;50.906;6.952;2022-11-15T06:25:25;3.27;;;2.97;;
14754;SDS011;7469;50.906;6.952;2022-11-15T06:27:53;3.43;;;3.00;;
14754;SDS011;7469;50.906;6.952;2022-11-15T06:30:23;5.00;;;3.40;;
14754;SDS011;7469;50.906;6.952;2022-11-15T06:33:00;3.07;;;2.83;;
14754;SDS011;7469;50.906;6.952;2022-11-15T06:35:32;4.30;;;2.80;;
14754;SDS011;7469;50.906;6.952;2022-11-15T06:38:01;4.03;;;2.60;;
14754;SDS011;7469;50.906;6.952;2022-11-15T06:40:32;3.10;;;2.63;;
14754;SDS011;7469;50.906;6.952;2022-11-15T06:43:01;2.97;;;2.33;;
14754;SDS011;7469;50.906;6.952;2022-11-15T06:45:33;2.83;;;1.97;;
14754;SDS011;7469;50.906;6.952;2022-11-15T06:48:01;2.60;;;2.17;;
14754;SDS011;7469;50.906;6.952;2022-11-15T06:50:30;4.57;;;2.70;;
14754;SDS011;7469;50.906;6.952;2022-11-15T06:53:00;3.07;;;2.77;;
14754;SDS011;7469;50.906;6.952;2022-11-15T06:55:29;3.43;;;2.70;;
14754;SDS011;7469;50.906;6.952;2022-11-15T06:57:57;2.90;;;2.53;;
14754;SDS011;7469;50.906;6.952;2022-11-15T07:00:25;5.73;;;2.37;;
14754;SDS011;7469;50.906;6.952;2022-11-15T07:02:54;2.00;;;1.87;;
14754;SDS011;7469;50.906;6.952;2022-11-15T07:05:22;3.63;;;1.97;;
14754;SDS011;7469;50.906;6.952;2022-11-15T07:07:53;2.03;;;1.83;;
14754;SDS011;7469;50.906;6.952;2022-11-15T07:10:22;2.40;;;1.80;;
14754;SDS011;7469;50.906;6.952;2022-11-15T07:12:51;2.33;;;1.57;;
14754;SDS011;7469;50.906;6.952;2022-11-15T07:15:20;2.90;;;1.90;;
14754;SDS011;7469;50.906;6.952;2022-11-15T07:17:50;2.77;;;2.03;;
14754;SDS011;7469;50.906;6.952;2022-11-15T07:20:19;3.90;;;2.60;;
14754;SDS011;7469;50.906;6.952;2022-11-15T07:22:47;4.07;;;2.30;;
14754;SDS011;7469;50.906;6.952;2022-11-15T07:25:15;3.67;;;2.80;;
14754;SDS011;7469;50.906;6.952;2022-11-15T07:27:43;3.97;;;2.67;;
14754;SDS011;7469;50.906;6.952;2022-11-15T07:30:21;2.50;;;2.30;;
14754;SDS011;7469;50.906;6.952;2022-11-15T07:32:51;3.43;;;2.40;;
14754;SDS011;7469;50.906;6.952;2022-11-15T07:35:22;4.43;;;2.80;;
14754;SDS011;7469;50.906;6.952;2022-11-15T07:37:54;3.33;;;2.10;;
14754;SDS011;7469;50.906;6.952;2022-11-15T07:40:23;2.27;;;1.70;;
14754;SDS011;7469;50.906;6.952;2022-11-15T07:42:51;2.40;;;1.60;;
14754;SDS011;7469;50.906;6.952;2022-11-15T07:45:19;4.13;;;1.60;;
14754;SDS011;7469;50.906;6.952;2022-11-15T07:47:48;1.57;;;1.30;;
14754;SDS011;7469;50.906;6.952;2022-11-15T07:50:17;4.30;;;1.77;;
14754;SDS011;7469;50.906;6.952;2022-11-15T07:52:46;2.13;;;1.40;;
14754;SDS011;7469;50.906;6.952;2022-11-15T07:55:14;7.47;;;1.70;;
14754;SDS011;7469;50.906;6.952;2022-11-15T07:57:42;6.17;;;1.73;;
14754;SDS011;7469;50.906;6.952;2022-11-15T08:00:11;3.87;;;1.73;;
14754;SDS011;7469;50.906;6.952;2022-11-15T08:02:39;5.20;;;1.93;;
14754;SDS011;7469;50.906;6.952;2022-11-15T08:05:08;2.53;;;1.70;;
14754;SDS011;7469;50.906;6.952;2022-11-15T08:07:36;4.77;;;1.70;;
14754;SDS011;7469;50.906;6.952;2022-11-15T08:10:06;2.07;;;1.57;;
14754;SDS011;7469;50.906;6.952;2022-11-15T08:12:35;2.57;;;1.73;;
14754;SDS011;7469;50.906;6.952;2022-11-15T08:15:03;1.50;;;1.40;;
14754;SDS011;7469;50.906;6.952;2022-11-15T08:17:31;3.10;;;1.80;;
14754;SDS011;7469;50.906;6.952;2022-11-15T08:20:00;2.03;;;1.67;;
14754;SDS011;7469;50.906;6.952;2022-11-15T08:22:28;3.77;;;1.70;;
14754;SDS011;7469;50.906;6.952;2022-11-15T08:24:56;2.23;;;1.70;;
14754;SDS011;7469;50.906;6.952;2022-11-15T08:27:25;3.53;;;1.80;;
14754;SDS011;7469;50.906;6.952;2022-11-15T08:29:53;2.70;;;1.80;;
14754;SDS011;7469;50.906;6.952;2022-11-15T08:32:25;2.03;;;1.53;;
14754;SDS011;7469;50.906;6.952;2022-11-15T08:34:52;1.60;;;1.50;;
14754;SDS011;7469;50.906;6.952;2022-11-15T08:37:20;1.67;;;1.40;;
14754;SDS011;7469;50.906;6.952;2022-11-15T08:39:48;2.30;;;1.43;;
14754;SDS011;7469;50.906;6.952;2022-11-15T08:42:16;2.40;;;1.40;;
14754;SDS011;7469;50.906;6.952;2022-11-15T08:44:46;3.73;;;1.37;;
14754;SDS011;7469;50.906;6.952;2022-11-15T08:47:14;2.43;;;1.40;;
14754;SDS011;7469;50.906;6.952;2022-11-15T08:49:42;2.10;;;1.30;;
14754;SDS011;7469;50.906;6.952;2022-11-15T08:52:10;1.50;;;1.40;;
14754;SDS011;7469;50.906;6.952;2022-11-15T08:54:38;3.97;;;1.30;;
14754;SDS011;7469;50.906;6.952;2022-11-15T08:57:06;4.07;;;1.50;;
14754;SDS011;7469;50.906;6.952;2022-11-15T08:59:35;3.50;;;1.30;;
14754;SDS011;7469;50.906;6.952;2022-11-15T09:02:05;3.03;;;1.20;;
14754;SDS011;7469;50.906;6.952;2022-11-15T09:04:33;3.70;;;1.67;;
14754;SDS011;7469;50.906;6.952;2022-11-15T09:07:01;2.23;;;1.30;;
14754;SDS011;7469;50.906;6.952;2022-11-15T09:09:29;4.03;;;1.60;;
14754;SDS011;7469;50.906;6.952;2022-11-15T09:11:57;2.70;;;1.27;;
14754;SDS011;7469;50.906;6.952;2022-11-15T09:14:28;4.73;;;1.57;;
14754;SDS011;7469;50.906;6.952;2022-11-15T09:16:56;4.63;;;1.67;;
14754;SDS011;7469;50.906;6.952;2022-11-15T09:19:25;3.03;;;1.30;;
14754;SDS011;7469;50.906;6.952;2022-11-15T09:21:53;2.77;;;1.27;;
14754;SDS011;7469;50.906;6.952;2022-11-15T09:24:21;2.57;;;1.30;;
14754;SDS011;7469;50.906;6.952;2022-11-15T09:26:50;5.50;;;1.30;;
14754;SDS011;7469;50.906;6.952;2022-11-15T09:29:18;3.20;;;1.30;;
14754;SDS011;7469;50.906;6.952;2022-11-15T09:32:04;1.47;;;1.07;;
14754;SDS011;7469;50.906;6.952;2022-11-15T09:34:33;2.10;;;1.20;;
14754;SDS011;7469;50.906;6.952;2022-11-15T09:37:01;2.97;;;1.03;;
14754;SDS011;7469;50.906;6.952;2022-11-15T09:39:29;0.87;;;0.83;;
14754;SDS011;7469;50.906;6.952;2022-11-15T09:42:09;3.60;;;1.43;;
14754;SDS011;7469;50.906;6.952;2022-11-15T09:45:03;3.17;;;1.30;;
14754;SDS011;7469;50.906;6.952;2022-11-15T09:47:51;1.33;;;0.90;;
14754;SDS011;7469;50.906;6.952;2022-11-15T09:50:34;2.77;;;1.10;;
14754;SDS011;7469;50.906;6.952;2022-11-15T09:53:08;1.73;;;1.03;;
14754;SDS011;7469;50.906;6.952;2022-11-15T09:55:40;2.17;;;0.70;;
14754;SDS011;7469;50.906;6.952;2022-11-15T09:58:17;3.93;;;1.00;;
14754;SDS011;7469;50.906;6.952;2022-11-15T10:00:52;1.80;;;1.23;;
14754;SDS011;7469;50.906;6.952;2022-11-15T10:03:23;2.80;;;1.00;;
14754;SDS011;7469;50.906;6.952;2022-11-15T10:05:59;3.87;;;1.07;;
14754;SDS011;7469;50.906;6.952;2022-11-15T10:08:34;2.00;;;1.03;;
14754;SDS011;7469;50.906;6.952;2022-11-15T10:11:18;6.60;;;1.10;;
14754;SDS011;7469;50.906;6.952;2022-11-15T10:14:04;4.67;;;1.30;;
14754;SDS011;7469;50.906;6.952;2022-11-15T10:16:50;4.33;;;0.80;;
14754;SDS011;7469;50.906;6.952;2022-11-15T10:19:33;3.83;;;1.40;;
14754;SDS011;7469;50.906;6.952;2022-11-15T10:22:11;4.17;;;1.10;;
14754;SDS011;7469;50.906;6.952;2022-11-15T10:24:50;3.53;;;1.10;;
14754;SDS011;7469;50.906;6.952;2022-11-15T10:27:26;1.93;;;1.20;;
14754;SDS011;7469;50.906;6.952;2022-11-15T10:29:56;1.70;;;0.63;;
14754;SDS011;7469;50.906;6.952;2022-11-15T10:32:24;1.17;;;0.80;;
14754;SDS011;7469;50.906;6.952;2022-11-15T10:34:53;2.07;;;0.87;;
14754;SDS011;7469;50.906;6.952;2022-11-15T10:37:28;2.20;;;0.90;;
14754;SDS011;7469;50.906;6.952;2022-11-15T10:40:04;6.07;;;0.70;;
14754;SDS011;7469;50.906;6.952;2022-11-15T10:43:03;1.07;;;0.73;;
14754;SDS011;7469;50.906;6.952;2022-11-15T10:45:33;5.93;;;1.13;;
14754;SDS011;7469;50.906;6.952;2022-11-15T10:48:20;1.53;;;0.53;;
14754;SDS011;7469;50.906;6.952;2022-11-15T10:50:51;3.57;;;0.90;;
14754;SDS011;7469;50.906;6.952;2022-11-15T10:53:23;1.87;;;0.90;;
14754;SDS011;7469;50.906;6.952;2022-11-15T10:55:55;4.63;;;0.97;;
14754;SDS011;7469;50.906;6.952;2022-11-15T10:58:30;1.00;;;0.70;;
14754;SDS011;7469;50.906;6.952;2022-11-15T11:01:13;1.27;;;0.80;;
14754;SDS011;7469;50.906;6.952;2022-11-15T11:03:43;1.33;;;0.60;;
14754;SDS011;7469;50.906;6.952;2022-11-15T11:06:13;7.87;;;1.20;;
14754;SDS011;7469;50.906;6.952;2022-11-15T11:08:54;1.20;;;0.90;;
14754;SDS011;7469;50.906;6.952;2022-11-15T11:11:23;2.67;;;1.00;;
14754;SDS011;7469;50.906;6.952;2022-11-15T11:13:51;3.50;;;0.93;;
14754;SDS011;7469;50.906;6.952;2022-11-15T11:16:23;1.40;;;0.70;;
14754;SDS011;7469;50.906;6.952;2022-11-15T11:19:08;2.07;;;0.87;;
14754;SDS011;7469;50.906;6.952;2022-11-15T11:22:01;0.70;;;0.50;;
14754;SDS011;7469;50.906;6.952;2022-11-15T11:24:36;1.80;;;0.70;;
14754;SDS011;7469;50.906;6.952;2022-11-15T11:27:12;1.17;;;0.80;;
14754;SDS011;7469;50.906;6.952;2022-11-15T11:29:49;1.13;;;0.80;;
14754;SDS011;7469;50.906;6.952;2022-11-15T11:32:30;2.63;;;0.70;;
14754;SDS011;7469;50.906;6.952;2022-11-15T11:35:09;2.27;;;0.90;;
14754;SDS011;7469;50.906;6.952;2022-11-15T11:37:43;2.70;;;0.93;;
14754;SDS011;7469;50.906;6.952;2022-11-15T11:40:20;1.67;;;0.67;;
14754;SDS011;7469;50.906;6.952;2022-11-15T11:42:58;1.03;;;0.60;;
14754;SDS011;7469;50.906;6.952;2022-11-15T11:45:44;1.43;;;0.80;;
14754;SDS011;7469;50.906;6.952;2022-11-15T11:48:34;1.70;;;0.83;;
14754;SDS011;7469;50.906;6.952;2022-11-15T11:51:10;1.00;;;0.80;;
14754;SDS011;7469;50.906;6.952;2022-11-15T11:53:42;4.50;;;1.00;;
14754;SDS011;7469;50.906;6.952;2022-11-15T11:56:19;2.60;;;0.70;;
14754;SDS011;7469;50.906;6.952;2022-11-15T11:58:52;1.10;;;0.70;;
14754;SDS011;7469;50.906;6.952;2022-11-15T12:01:22;4.73;;;1.20;;
14754;SDS011;7469;50.906;6.952;2022-11-15T12:03:53;2.17;;;1.00;;
14754;SDS011;7469;50.906;6.952;2022-11-15T12:06:27;6.83;;;1.10;;
14754;SDS011;7469;50.906;6.952;2022-11-15T12:09:00;2.53;;;0.93;;
14754;SDS011;7469;50.906;6.952;2022-11-15T12:11:37;2.23;;;0.90;;
14754;SDS011;7469;50.906;6.952;2022-11-15T12:14:18;2.20;;;0.90;;
14754;SDS011;7469;50.906;6.952;2022-11-15T12:16:52;4.10;;;1.07;;
14754;SDS011;7469;50.906;6.952;2022-11-15T12:19:20;2.30;;;0.70;;
14754;SDS011;7469;50.906;6.952;2022-11-15T12:21:49;5.70;;;1.13;;
14754;SDS011;7469;50.906;6.952;2022-11-15T12:24:25;3.00;;;1.00;;
14754;SDS011;7469;50.906;6.952;2022-11-15T12:26:59;2.53;;;1.10;;
14754;SDS011;7469;50.906;6.952;2022-11-15T12:29:34;5.13;;;1.27;;
14754;SDS011;7469;50.906;6.952;2022-11-15T12:32:05;1.27;;;0.70;;
14754;SDS011;7469;50.906;6.952;2022-11-15T12:34:45;2.30;;;0.80;;
14754;SDS011;7469;50.906;6.952;2022-11-15T12:40:22;2.50;;;0.90;;
14754;SDS011;7469;50.906;6.952;2022-11-15T12:42:59;3.53;;;1.30;;
14754;SDS011;7469;50.906;6.952;2022-11-15T12:45:30;1.40;;;0.80;;
14754;SDS011;7469;50.906;6.952;2022-11-15T12:51:05;2.20;;;1.20;;
14754;SDS011;7469;50.906;6.952;2022-11-15T12:53:33;4.73;;;1.57;;
14754;SDS011;7469;50.906;6.952;2022-11-15T12:56:23;4.50;;;1.10;;
14754;SDS011;7469;50.906;6.952;2022-11-15T12:58:54;3.43;;;1.13;;
14754;SDS011;7469;50.906;6.952;2022-11-15T13:04:28;2.60;;;1.10;;
14754;SDS011;7469;50.906;6.952;2022-11-15T13:06:58;6.90;;;1.40;;
14754;SDS011;7469;50.906;6.952;2022-11-15T13:15:37;1.77;;;1.10;;
14754;SDS011;7469;50.906;6.952;2022-11-15T13:21:00;3.53;;;1.30;;
14754;SDS011;7469;50.906;6.952;2022-11-15T13:23:52;2.43;;;1.50;;
14754;SDS011;7469;50.906;6.952;2022-11-15T13:26:21;1.33;;;1.23;;
14754;SDS011;7469;50.906;6.952;2022-11-15T13:28:50;3.10;;;1.40;;
14754;SDS011;7469;50.906;6.952;2022-11-15T13:31:24;4.50;;;1.60;;
14754;SDS011;7469;50.906;6.952;2022-11-15T13:33:55;2.63;;;1.97;;
14754;SDS011;7469;50.906;6.952;2022-11-15T13:36:27;2.37;;;1.83;;
14754;SDS011;7469;50.906;6.952;2022-11-15T13:38:57;4.00;;;1.90;;
14754;SDS011;7469;50.906;6.952;2022-11-15T13:41:27;4.37;;;2.03;;
14754;SDS011;7469;50.906;6.952;2022-11-15T13:43:57;4.17;;;1.80;;
14754;SDS011;7469;50.906;6.952;2022-11-15T13:46:28;2.93;;;1.90;;
14754;SDS011;7469;50.906;6.952;2022-11-15T13:48:59;3.93;;;1.97;;
14754;SDS011;7469;50.906;6.952;2022-11-15T13:51:30;3.73;;;1.87;;
14754;SDS011;7469;50.906;6.952;2022-11-15T13:54:07;2.87;;;1.80;;
14754;SDS011;7469;50.906;6.952;2022-11-15T13:56:44;2.40;;;1.60;;
14754;SDS011;7469;50.906;6.952;2022-11-15T13:59:23;1.70;;;1.50;;
14754;SDS011;7469;50.906;6.952;2022-11-15T14:01:55;3.23;;;1.70;;
14754;SDS011;7469;50.906;6.952;2022-11-15T14:04:25;4.67;;;1.73;;
14754;SDS011;7469;50.906;6.952;2022-11-15T14:06:57;5.63;;;1.77;;
14754;SDS011;7469;50.906;6.952;2022-11-15T14:09:31;2.43;;;1.73;;
14754;SDS011;7469;50.906;6.952;2022-11-15T14:12:01;2.80;;;1.80;;
14754;SDS011;7469;50.906;6.952;2022-11-15T14:14:47;4.10;;;1.97;;
14754;SDS011;7469;50.906;6.952;2022-11-15T14:17:19;4.67;;;2.00;;
14754;SDS011;7469;50.906;6.952;2022-11-15T14:19:49;2.77;;;1.70;;
14754;SDS011;7469;50.906;6.952;2022-11-15T14:22:19;3.87;;;1.97;;
14754;SDS011;7469;50.906;6.952;2022-11-15T14:25:03;2.23;;;1.60;;
14754;SDS011;7469;50.906;6.952;2022-11-15T14:27:34;2.83;;;1.50;;
14754;SDS011;7469;50.906;6.952;2022-11-15T14:30:02;2.70;;;2.17;;
14754;SDS011;7469;50.906;6.952;2022-11-15T14:32:39;2.87;;;1.80;;
14754;SDS011;7469;50.906;6.952;2022-11-15T14:35:12;3.33;;;2.00;;
14754;SDS011;7469;50.906;6.952;2022-11-15T14:37:43;2.33;;;1.60;;
14754;SDS011;7469;50.906;6.952;2022-11-15T14:40:12;3.87;;;1.83;;
14754;SDS011;7469;50.906;6.952;2022-11-15T14:42:42;3.90;;;1.73;;
14754;SDS011;7469;50.906;6.952;2022-11-15T14:45:11;4.67;;;1.50;;
14754;SDS011;7469;50.906;6.952;2022-11-15T14:47:43;3.27;;;1.57;;
14754;SDS011;7469;50.906;6.952;2022-11-15T14:50:11;2.93;;;1.90;;
14754;SDS011;7469;50.906;6.952;2022-11-15T14:52:40;4.30;;;1.93;;
14754;SDS011;7469;50.906;6.952;2022-11-15T14:55:11;4.13;;;1.80;;
14754;SDS011;7469;50.906;6.952;2022-11-15T14:57:44;3.33;;;1.50;;
14754;SDS011;7469;50.906;6.952;2022-11-15T15:00:12;4.90;;;1.90;;
14754;SDS011;7469;50.906;6.952;2022-11-15T15:02:43;2.87;;;1.60;;
14754;SDS011;7469;50.906;6.952;2022-11-15T15:05:13;2.97;;;1.53;;
14754;SDS011;7469;50.906;6.952;2022-11-15T15:07:42;3.17;;;1.60;;
14754;SDS011;7469;50.906;6.952;2022-11-15T15:10:11;3.90;;;1.60;;
14754;SDS011;7469;50.906;6.952;2022-11-15T15:13:00;1.87;;;1.50;;
14754;SDS011;7469;50.906;6.952;2022-11-15T15:15:33;2.33;;;1.10;;
14754;SDS011;7469;50.906;6.952;2022-11-15T15:18:03;2.03;;;1.13;;
14754;SDS011;7469;50.906;6.952;2022-11-15T15:20:34;2.50;;;1.43;;
14754;SDS011;7469;50.906;6.952;2022-11-15T15:23:03;2.70;;;1.40;;
14754;SDS011;7469;50.906;6.952;2022-11-15T15:25:32;2.43;;;1.40;;
14754;SDS011;7469;50.906;6.952;2022-11-15T15:28:01;1.43;;;1.30;;
14754;SDS011;7469;50.906;6.952;2022-11-15T15:30:30;2.77;;;1.07;;
14754;SDS011;7469;50.906;6.952;2022-11-15T15:32:58;1.40;;;1.20;;
14754;SDS011;7469;50.906;6.952;2022-11-15T15:35:29;4.43;;;1.23;;
14754;SDS011;7469;50.906;6.952;2022-11-15T15:37:59;2.83;;;1.40;;
14754;SDS011;7469;50.906;6.952;2022-11-15T15:40:28;2.43;;;1.30;;
14754;SDS011;7469;50.906;6.952;2022-11-15T15:42:57;3.67;;;1.27;;
14754;SDS011;7469;50.906;6.952;2022-11-15T15:45:26;2.50;;;1.27;;
14754;SDS011;7469;50.906;6.952;2022-11-15T15:47:55;2.57;;;1.20;;
14754;SDS011;7469;50.906;6.952;2022-11-15T15:50:24;2.07;;;1.23;;
14754;SDS011;7469;50.906;6.952;2022-11-15T15:52:56;1.90;;;1.67;;